createdAt,value
2018-06-13T00:00:18.618Z,17.27
2018-06-13T00:02:48.011Z,17.19
2018-06-13T00:05:17.929Z,17.00
2018-06-13T00:07:46.672Z,16.89
2018-06-13T00:10:15.946Z,16.66
2018-06-13T00:12:44.476Z,16.69
2018-06-13T00:15:13.281Z,16.61
2018-06-13T00:17:42.600Z,16.67
2018-06-13T00:20:11.748Z,16.85
2018-06-13T00:22:42.111Z,16.65
2018-06-13T00:25:10.668Z,16.33
2018-06-13T00:27:41.724Z,16.54
2018-06-13T00:30:10.294Z,16.54
2018-06-13T00:32:40.334Z,16.40
2018-06-13T00:35:09.613Z,16.52
2018-06-13T00:37:38.070Z,16.32
2018-06-13T00:40:06.626Z,16.46
2018-06-13T00:42:35.657Z,16.44
2018-06-13T00:45:04.297Z,16.20
2018-06-13T00:47:33.332Z,16.35
2018-06-13T00:50:01.803Z,16.48
2018-06-13T00:52:30.323Z,16.48
2018-06-13T00:54:59.415Z,16.52
2018-06-13T00:57:28.453Z,16.36
2018-06-13T00:59:58.006Z,16.19
2018-06-13T01:02:26.795Z,16.22
2018-06-13T01:04:55.301Z,16.09
2018-06-13T01:07:23.778Z,16.08
2018-06-13T01:09:52.307Z,16.09
2018-06-13T01:12:20.919Z,15.97
2018-06-13T01:14:49.429Z,15.95
2018-06-13T01:17:17.926Z,16.34
2018-06-13T01:19:46.882Z,16.43
2018-06-13T01:22:16.057Z,16.47
2018-06-13T01:24:44.638Z,16.27
2018-06-13T01:27:13.187Z,16.44
2018-06-13T01:29:41.873Z,16.45
2018-06-13T01:32:11.002Z,16.46
2018-06-13T01:34:39.503Z,16.42
2018-06-13T01:37:08.069Z,16.13
2018-06-13T01:39:36.554Z,16.19
2018-06-13T01:42:05.607Z,16.02
2018-06-13T01:44:34.146Z,16.15
2018-06-13T01:47:03.094Z,16.05
2018-06-13T01:49:31.588Z,16.02
2018-06-13T01:52:00.132Z,16.19
2018-06-13T01:54:29.391Z,16.38
2018-06-13T01:56:58.478Z,16.33
2018-06-13T01:59:27.784Z,16.31
2018-06-13T02:01:56.253Z,16.28
2018-06-13T02:04:24.742Z,16.43
2018-06-13T02:06:53.565Z,16.33
2018-06-13T02:09:26.553Z,16.45
2018-06-13T02:11:55.319Z,16.50
2018-06-13T02:14:23.820Z,16.11
2018-06-13T02:16:52.406Z,16.17
2018-06-13T02:19:20.923Z,16.32
2018-06-13T02:21:50.720Z,16.35
2018-06-13T02:24:19.134Z,16.47
2018-06-13T02:26:47.575Z,15.88
2018-06-13T02:29:16.192Z,16.05
2018-06-13T02:31:44.765Z,15.99
2018-06-13T02:34:13.591Z,16.02
2018-06-13T02:36:42.456Z,15.87
2018-06-13T02:39:10.913Z,15.65
2018-06-13T02:41:39.498Z,15.76
2018-06-13T02:44:08.019Z,15.78
2018-06-13T02:46:36.531Z,15.75
2018-06-13T02:49:05.506Z,15.70
2018-06-13T02:51:33.977Z,15.40
2018-06-13T02:54:02.980Z,15.55
2018-06-13T02:56:31.394Z,15.66
2018-06-13T02:59:00.025Z,15.56
2018-06-13T03:01:28.745Z,15.56
2018-06-13T03:03:57.281Z,15.46
2018-06-13T03:06:25.792Z,15.41
2018-06-13T03:08:54.245Z,15.47
2018-06-13T03:11:22.955Z,15.45
2018-06-13T03:13:51.468Z,15.56
2018-06-13T03:16:20.049Z,15.63
2018-06-13T03:18:48.662Z,15.50
2018-06-13T03:21:17.169Z,15.39
2018-06-13T03:23:46.296Z,15.16
2018-06-13T03:26:14.826Z,15.28
2018-06-13T03:28:43.345Z,15.48
2018-06-13T03:31:11.837Z,15.27
2018-06-13T03:33:40.438Z,15.11
2018-06-13T03:36:08.983Z,15.12
2018-06-13T03:38:37.573Z,15.28
2018-06-13T03:41:06.108Z,15.41
2018-06-13T03:43:34.659Z,15.18
2018-06-13T03:46:03.201Z,15.38
2018-06-13T03:48:33.283Z,15.41
2018-06-13T03:51:01.960Z,15.43
2018-06-13T03:53:31.461Z,15.62
2018-06-13T03:55:59.953Z,15.74
2018-06-13T03:58:28.457Z,15.87
2018-06-13T04:00:57.172Z,15.62
2018-06-13T04:03:26.099Z,15.43
2018-06-13T04:05:54.643Z,15.51
2018-06-13T04:08:23.129Z,15.56
2018-06-13T04:10:51.602Z,15.42
2018-06-13T04:13:20.111Z,15.58
2018-06-13T04:15:49.013Z,15.54
2018-06-13T04:18:18.117Z,15.57
2018-06-13T04:20:46.646Z,15.46
2018-06-13T04:23:15.431Z,15.49
2018-06-13T04:25:44.012Z,15.48
2018-06-13T04:28:13.476Z,15.62
2018-06-13T04:30:42.136Z,15.61
2018-06-13T04:33:11.405Z,15.71
2018-06-13T04:35:40.307Z,15.61
2018-06-13T04:38:09.953Z,15.69
2018-06-13T04:40:44.937Z,15.40
2018-06-13T04:43:13.622Z,15.33
2018-06-13T04:45:44.382Z,14.99
2018-06-13T04:48:13.168Z,15.19
2018-06-13T04:50:41.799Z,15.14
2018-06-13T04:53:10.495Z,15.30
2018-06-13T04:55:38.909Z,15.42
2018-06-13T04:58:07.682Z,15.50
2018-06-13T05:00:36.169Z,15.64
2018-06-13T05:03:04.657Z,15.79
2018-06-13T05:05:33.271Z,15.65
2018-06-13T05:08:01.792Z,15.75
2018-06-13T05:10:30.302Z,15.74
2018-06-13T05:12:58.877Z,15.85
2018-06-13T05:15:27.412Z,15.66
2018-06-13T05:17:56.064Z,15.56
2018-06-13T05:20:24.506Z,15.46
2018-06-13T05:22:52.956Z,15.74
2018-06-13T05:25:21.432Z,15.35
2018-06-13T05:27:49.874Z,15.55
2018-06-13T05:30:18.419Z,15.49
2018-06-13T05:32:47.213Z,15.45
2018-06-13T05:35:15.734Z,15.48
2018-06-13T05:37:44.222Z,15.10
2018-06-13T05:40:12.909Z,15.42
2018-06-13T05:42:42.097Z,15.44
2018-06-13T05:45:10.657Z,15.49
2018-06-13T05:47:39.168Z,15.34
2018-06-13T05:50:07.737Z,15.21
2018-06-13T05:52:36.419Z,15.08
2018-06-13T05:55:05.113Z,15.17
2018-06-13T05:57:33.606Z,15.35
2018-06-13T06:00:02.210Z,15.35
2018-06-13T06:02:31.608Z,15.19
2018-06-13T06:05:00.234Z,15.25
2018-06-13T06:07:29.018Z,15.41
2018-06-13T06:09:57.480Z,15.15
2018-06-13T06:12:26.525Z,15.19
2018-06-13T06:14:55.070Z,15.15
2018-06-13T06:17:24.838Z,15.38
2018-06-13T06:19:53.309Z,15.37
2018-06-13T06:22:21.866Z,15.43
2018-06-13T06:24:50.339Z,15.33
2018-06-13T06:27:18.842Z,15.41
2018-06-13T06:29:47.347Z,15.55
2018-06-13T06:32:16.199Z,15.39
2018-06-13T06:34:44.704Z,15.52
2018-06-13T06:37:13.594Z,15.62
2018-06-13T06:39:42.104Z,15.76
2018-06-13T06:42:10.739Z,15.81
2018-06-13T06:44:39.391Z,15.92
2018-06-13T06:47:07.857Z,16.09
2018-06-13T06:49:36.451Z,16.01
2018-06-13T06:52:04.952Z,15.86
2018-06-13T06:54:33.841Z,15.80
2018-06-13T06:57:02.313Z,15.79
2018-06-13T06:59:30.815Z,15.78
2018-06-13T07:01:59.700Z,15.79
2018-06-13T07:04:28.217Z,15.70
2018-06-13T07:06:57.552Z,15.92
2018-06-13T07:09:26.057Z,15.92
2018-06-13T07:11:54.505Z,15.88
2018-06-13T07:14:23.599Z,15.83
2018-06-13T07:16:52.052Z,16.09
2018-06-13T07:19:21.201Z,16.18
2018-06-13T07:21:49.748Z,15.80
2018-06-13T07:24:18.764Z,15.94
2018-06-13T07:26:47.212Z,15.94
2018-06-13T07:29:15.837Z,16.08
2018-06-13T07:31:44.279Z,16.20
2018-06-13T07:34:12.724Z,16.21
2018-06-13T07:36:41.235Z,16.20
2018-06-13T07:39:09.927Z,16.23
2018-06-13T07:41:38.662Z,16.20
2018-06-13T07:44:07.201Z,16.35
2018-06-13T07:46:35.648Z,16.55
2018-06-13T07:49:04.097Z,16.54
2018-06-13T07:51:32.634Z,16.95
2018-06-13T07:54:01.147Z,16.96
2018-06-13T07:56:29.968Z,17.10
2018-06-13T07:58:58.430Z,17.17
2018-06-13T08:01:26.883Z,16.72
2018-06-13T08:03:55.881Z,16.62
2018-06-13T08:06:24.482Z,16.61
2018-06-13T08:08:52.957Z,16.51
2018-06-13T08:11:21.476Z,16.88
2018-06-13T08:13:49.929Z,17.10
2018-06-13T08:16:18.378Z,17.29
2018-06-13T08:18:47.152Z,17.42
2018-06-13T08:21:15.585Z,17.67
2018-06-13T08:23:44.269Z,17.69
2018-06-13T08:26:12.641Z,17.93
2018-06-13T08:28:41.169Z,17.64
2018-06-13T08:31:09.667Z,17.24
2018-06-13T08:33:38.275Z,17.45
2018-06-13T08:36:06.706Z,17.72
2018-06-13T08:38:42.011Z,17.64
2018-06-13T08:41:10.555Z,17.69
2018-06-13T08:43:39.024Z,17.57
2018-06-13T08:46:07.658Z,17.75
2018-06-13T08:48:36.101Z,17.53
2018-06-13T08:51:05.046Z,17.48
2018-06-13T08:53:33.586Z,17.47
2018-06-13T08:56:02.196Z,17.40
2018-06-13T08:58:30.637Z,17.21
2018-06-13T09:00:59.470Z,17.25
2018-06-13T09:03:27.964Z,17.16
2018-06-13T09:05:56.433Z,17.08
2018-06-13T09:08:24.881Z,16.90
2018-06-13T09:10:54.309Z,16.92
2018-06-13T09:13:22.789Z,16.68
2018-06-13T09:15:51.305Z,16.82
2018-06-13T09:18:19.775Z,16.96
2018-06-13T09:20:48.316Z,17.10
2018-06-13T09:23:16.807Z,16.81
2018-06-13T09:25:45.267Z,16.71
2018-06-13T09:28:13.756Z,16.79
2018-06-13T09:30:42.169Z,16.86
2018-06-13T09:33:10.706Z,16.69
2018-06-13T09:35:39.182Z,16.52
2018-06-13T09:38:07.698Z,16.54
2018-06-13T09:40:36.139Z,16.61
2018-06-13T09:43:04.678Z,16.77
2018-06-13T09:45:33.104Z,16.98
2018-06-13T09:48:01.629Z,17.10
2018-06-13T09:50:30.820Z,17.48
2018-06-13T09:52:59.982Z,17.63
2018-06-13T09:55:28.476Z,17.83
2018-06-13T09:57:56.964Z,17.65
2018-06-13T10:00:30.694Z,17.65
2018-06-13T10:02:59.475Z,17.53
2018-06-13T10:05:27.980Z,17.65
2018-06-13T10:07:56.509Z,17.37
2018-06-13T10:10:25.012Z,17.16
2018-06-13T10:12:53.555Z,17.36
2018-06-13T10:15:22.206Z,17.24
2018-06-13T10:17:50.632Z,17.39
2018-06-13T10:20:19.255Z,17.48
2018-06-13T10:22:47.750Z,17.31
2018-06-13T10:25:16.288Z,17.33
2018-06-13T10:27:44.759Z,17.69
2018-06-13T10:30:13.429Z,17.87
2018-06-13T10:32:41.846Z,17.81
2018-06-13T10:35:11.917Z,17.85
2018-06-13T10:37:40.371Z,18.13
2018-06-13T10:40:08.902Z,18.23
2018-06-13T10:42:37.403Z,18.27
2018-06-13T10:45:05.865Z,18.03
2018-06-13T10:47:34.430Z,17.81
2018-06-13T10:50:02.983Z,17.74
2018-06-13T10:52:31.489Z,17.66
2018-06-13T10:55:00.118Z,17.28
2018-06-13T10:57:28.602Z,17.42
2018-06-13T10:59:57.116Z,17.54
2018-06-13T11:02:25.662Z,17.67
2018-06-13T11:04:54.161Z,17.76
2018-06-13T11:07:22.708Z,17.60
2018-06-13T11:09:51.213Z,17.78
2018-06-13T11:12:20.295Z,18.04
2018-06-13T11:14:48.829Z,17.88
2018-06-13T11:17:18.653Z,18.05
2018-06-13T11:19:47.118Z,18.25
2018-06-13T11:22:15.580Z,18.28
2018-06-13T11:24:44.685Z,18.08
2018-06-13T11:27:13.866Z,18.59
2018-06-13T11:29:42.323Z,18.52
2018-06-13T11:32:10.799Z,18.80
2018-06-13T11:34:40.099Z,18.83
2018-06-13T11:37:08.895Z,18.66
2018-06-13T11:39:37.468Z,18.99
2018-06-13T11:42:05.947Z,18.96
2018-06-13T11:44:34.447Z,19.26
2018-06-13T11:47:02.945Z,19.27
2018-06-13T11:49:31.527Z,19.18
2018-06-13T11:52:00.020Z,18.82
2018-06-13T11:54:28.553Z,19.10
2018-06-13T11:56:57.598Z,19.16
2018-06-13T11:59:26.041Z,19.06
2018-06-13T12:01:54.525Z,19.24
2018-06-13T12:04:23.031Z,19.11
2018-06-13T12:06:51.731Z,19.17
2018-06-13T12:09:20.243Z,19.02
2018-06-13T12:11:48.782Z,18.94
2018-06-13T12:14:17.303Z,18.86
2018-06-13T12:16:45.908Z,18.64
2018-06-13T12:19:14.495Z,18.76
2018-06-13T12:21:43.091Z,19.04
2018-06-13T12:24:11.609Z,19.28
2018-06-13T12:26:40.245Z,19.48
2018-06-13T12:29:08.734Z,19.61
2018-06-13T12:31:37.231Z,19.48
2018-06-13T12:34:05.951Z,19.66
2018-06-13T12:36:35.134Z,19.39
2018-06-13T12:39:04.078Z,19.47
2018-06-13T12:41:32.613Z,19.41
2018-06-13T12:44:01.167Z,19.20
2018-06-13T12:46:29.760Z,19.27
2018-06-13T12:48:59.005Z,19.09
2018-06-13T12:51:27.498Z,19.17
2018-06-13T12:53:56.128Z,19.24
2018-06-13T12:56:24.585Z,19.09
2018-06-13T12:58:53.213Z,18.44
2018-06-13T13:01:22.275Z,18.38
2018-06-13T13:03:50.837Z,18.30
2018-06-13T13:06:19.341Z,17.73
2018-06-13T13:08:47.924Z,17.62
2018-06-13T13:11:16.389Z,17.69
2018-06-13T13:13:44.974Z,17.43
2018-06-13T13:16:13.453Z,17.55
2018-06-13T13:18:42.080Z,17.73
2018-06-13T13:21:10.982Z,17.95
2018-06-13T13:23:39.468Z,17.78
2018-06-13T13:26:07.976Z,17.95
2018-06-13T13:28:36.498Z,17.68
2018-06-13T13:31:06.272Z,17.65
2018-06-13T13:33:34.794Z,17.93
2018-06-13T13:36:03.281Z,17.66
2018-06-13T13:38:31.776Z,17.98
2018-06-13T13:41:00.226Z,17.92
2018-06-13T13:43:28.703Z,17.68
2018-06-13T13:45:57.346Z,18.14
2018-06-13T13:48:25.927Z,18.11
2018-06-13T13:50:54.444Z,17.88
2018-06-13T13:53:22.979Z,18.04
2018-06-13T13:55:51.495Z,18.34
2018-06-13T13:58:24.310Z,18.02
2018-06-13T14:00:53.655Z,18.33
2018-06-13T14:03:22.141Z,18.35
2018-06-13T14:05:51.326Z,18.59
2018-06-13T14:08:19.807Z,18.99
2018-06-13T14:10:48.281Z,19.22
2018-06-13T14:13:16.709Z,19.16
2018-06-13T14:15:45.179Z,19.32
2018-06-13T14:18:13.668Z,19.47
2018-06-13T14:20:42.158Z,19.43
2018-06-13T14:23:10.703Z,19.65
2018-06-13T14:25:39.260Z,19.77
2018-06-13T14:28:07.753Z,19.63
2018-06-13T14:30:36.415Z,19.61
2018-06-13T14:33:04.937Z,19.34
2018-06-13T14:35:33.437Z,19.05
2018-06-13T14:38:02.175Z,19.10
2018-06-13T14:40:30.675Z,18.97
2018-06-13T14:42:59.847Z,19.16
2018-06-13T14:45:28.669Z,19.35
2018-06-13T14:47:57.163Z,18.98
2018-06-13T14:50:25.711Z,18.82
2018-06-13T14:52:54.321Z,18.39
2018-06-13T14:55:23.080Z,18.33
2018-06-13T14:57:51.662Z,18.68
2018-06-13T15:00:20.827Z,18.55
2018-06-13T15:02:49.479Z,18.91
2018-06-13T15:05:17.969Z,18.87
2018-06-13T15:07:46.525Z,18.71
2018-06-13T15:10:15.103Z,18.61
2018-06-13T15:12:43.622Z,18.60
2018-06-13T15:15:12.052Z,18.62
2018-06-13T15:17:40.643Z,18.71
2018-06-13T15:20:09.710Z,18.87
2018-06-13T15:22:38.219Z,18.77
2018-06-13T15:25:06.771Z,18.75
2018-06-13T15:27:35.325Z,19.22
2018-06-13T15:30:04.326Z,18.92
2018-06-13T15:32:32.867Z,18.60
2018-06-13T15:35:01.451Z,18.60
2018-06-13T15:37:29.990Z,18.73
2018-06-13T15:39:59.513Z,18.54
2018-06-13T15:42:27.996Z,18.47
2018-06-13T15:44:56.611Z,18.50
2018-06-13T15:47:25.064Z,18.17
2018-06-13T15:49:53.504Z,18.14
2018-06-13T15:52:22.077Z,18.00
2018-06-13T15:54:50.542Z,17.92
2018-06-13T15:57:19.242Z,18.07
2018-06-13T15:59:47.783Z,18.13
2018-06-13T16:02:16.787Z,17.76
2018-06-13T16:04:45.276Z,17.82
2018-06-13T16:07:13.861Z,17.65
2018-06-13T16:09:42.363Z,17.85
2018-06-13T16:12:10.872Z,18.02
2018-06-13T16:14:39.399Z,17.89
2018-06-13T16:17:07.883Z,17.90
2018-06-13T16:19:36.461Z,18.05
2018-06-13T16:22:05.046Z,18.26
2018-06-13T16:24:39.885Z,18.08
2018-06-13T16:27:08.456Z,18.16
2018-06-13T16:29:37.296Z,18.16
2018-06-13T16:32:05.806Z,18.33
2018-06-13T16:34:34.408Z,18.37
2018-06-13T16:37:03.102Z,18.27
2018-06-13T16:39:31.593Z,18.11
2018-06-13T16:42:00.371Z,18.37
2018-06-13T16:44:28.841Z,18.49
2018-06-13T16:46:57.403Z,18.46
2018-06-13T16:49:25.955Z,18.63
2018-06-13T16:51:55.895Z,18.43
2018-06-13T16:55:39.679Z,18.47
2018-06-13T16:58:08.796Z,18.33
2018-06-13T17:00:37.312Z,17.98
2018-06-13T17:03:05.971Z,18.24
2018-06-13T17:05:34.472Z,18.09
2018-06-13T17:08:03.167Z,18.26
2018-06-13T17:10:31.907Z,18.41
2018-06-13T17:13:00.913Z,18.17
2018-06-13T17:15:29.830Z,18.18
2018-06-13T17:17:58.370Z,17.97
2018-06-13T17:20:26.892Z,17.82
2018-06-13T17:22:55.523Z,17.75
2018-06-13T17:25:24.218Z,17.69
2018-06-13T17:27:54.049Z,17.69
2018-06-13T17:30:23.441Z,17.68
2018-06-13T17:32:53.795Z,17.73
2018-06-13T17:35:22.459Z,17.53
2018-06-13T17:37:51.805Z,17.63
2018-06-13T17:40:20.400Z,17.84
2018-06-13T17:42:49.044Z,17.80
2018-06-13T17:45:17.593Z,17.39
2018-06-13T17:47:46.168Z,17.45
2018-06-13T17:50:14.631Z,17.60
2018-06-13T17:52:43.158Z,17.55
2018-06-13T17:55:11.699Z,17.52
2018-06-13T17:57:40.277Z,17.34
2018-06-13T18:00:08.869Z,17.50
2018-06-13T18:02:37.388Z,17.76
2018-06-13T18:05:06.180Z,17.70
2018-06-13T18:07:34.700Z,17.58
2018-06-13T18:10:05.708Z,17.72
2018-06-13T18:12:34.284Z,17.77
2018-06-13T18:15:02.754Z,17.84
2018-06-13T18:17:31.466Z,17.86
2018-06-13T18:20:00.117Z,17.42
2018-06-13T18:22:29.046Z,17.53
2018-06-13T18:24:58.249Z,17.34
2018-06-13T18:27:26.857Z,17.45
2018-06-13T18:29:55.763Z,17.61
2018-06-13T18:32:24.302Z,17.64
2018-06-13T18:34:52.871Z,17.63
2018-06-13T18:37:22.376Z,17.56
2018-06-13T18:39:50.906Z,18.01
2018-06-13T18:42:19.471Z,17.83
2018-06-13T18:44:48.311Z,17.64
2018-06-13T18:47:16.847Z,17.42
2018-06-13T18:49:45.337Z,17.51
2018-06-13T18:52:14.027Z,17.50
2018-06-13T18:54:42.491Z,17.33
2018-06-13T18:57:11.151Z,17.35
2018-06-13T18:59:39.704Z,17.49
2018-06-13T19:02:08.769Z,17.43
2018-06-13T19:04:37.230Z,17.37
2018-06-13T19:07:06.149Z,17.47
2018-06-13T19:09:34.728Z,17.32
2018-06-13T19:12:04.441Z,16.98
2018-06-13T19:14:32.871Z,16.96
2018-06-13T19:17:01.404Z,17.14
2018-06-13T19:19:30.705Z,17.16
2018-06-13T19:21:59.328Z,17.10
2018-06-13T19:24:28.240Z,17.22
2018-06-13T19:26:56.661Z,17.03
2018-06-13T19:29:26.516Z,17.12
2018-06-13T19:31:55.114Z,17.15
2018-06-13T19:34:23.677Z,17.08
2018-06-13T19:36:52.204Z,17.02
2018-06-13T19:39:20.713Z,17.01
2018-06-13T19:41:49.321Z,16.96
2018-06-13T19:44:17.796Z,17.10
2018-06-13T19:46:46.346Z,16.85
2018-06-13T19:49:14.813Z,16.85
2018-06-13T19:51:44.234Z,16.93
2018-06-13T19:54:18.159Z,17.00
2018-06-13T19:56:49.594Z,17.06
2018-06-13T19:59:18.124Z,16.88
2018-06-13T20:01:47.307Z,17.04
2018-06-13T20:04:21.611Z,17.00
2018-06-13T20:06:50.226Z,16.77
2018-06-13T20:09:18.712Z,16.85
2018-06-13T20:11:47.231Z,16.69
2018-06-13T20:14:20.973Z,16.89
2018-06-13T20:16:54.777Z,17.02
2018-06-13T20:19:28.465Z,17.02
2018-06-13T20:21:58.314Z,17.05
2018-06-13T20:24:26.852Z,17.13
2018-06-13T20:27:00.788Z,17.16
2018-06-13T20:29:34.836Z,17.20
2018-06-13T20:32:03.499Z,17.04
2018-06-13T20:34:33.096Z,17.12
2018-06-13T20:37:01.686Z,17.10
2018-06-13T20:39:30.311Z,17.13
2018-06-13T20:41:59.627Z,17.17
2018-06-13T20:44:28.125Z,17.06
2018-06-13T20:46:56.646Z,17.08
2018-06-13T20:49:25.822Z,17.00
2018-06-13T20:51:54.645Z,16.92
2018-06-13T20:54:23.234Z,16.90
2018-06-13T20:56:51.845Z,17.04
2018-06-13T20:59:20.590Z,16.87
2018-06-13T21:01:49.298Z,17.03
2018-06-13T21:04:18.039Z,17.09
2018-06-13T21:06:46.703Z,16.93
2018-06-13T21:09:15.271Z,17.02
2018-06-13T21:11:43.988Z,17.09
2018-06-13T21:14:12.749Z,17.09
2018-06-13T21:16:41.318Z,17.01
2018-06-13T21:19:09.913Z,17.02
2018-06-13T21:21:39.681Z,16.94
2018-06-13T21:24:08.581Z,17.03
2018-06-13T21:26:37.579Z,16.84
2018-06-13T21:29:06.248Z,16.87
2018-06-13T21:31:34.820Z,16.98
2018-06-13T21:34:04.227Z,16.99
2018-06-13T21:36:32.781Z,17.02
2018-06-13T21:39:02.113Z,16.93
2018-06-13T21:41:30.572Z,16.95
2018-06-13T21:43:59.280Z,17.04
2018-06-13T21:46:27.893Z,16.90
2018-06-13T21:48:56.516Z,16.84
2018-06-13T21:51:25.068Z,16.66
2018-06-13T21:53:53.719Z,16.76
2018-06-13T21:56:22.364Z,16.80
2018-06-13T21:58:52.202Z,16.37
2018-06-13T22:01:21.353Z,16.47
2018-06-13T22:03:49.850Z,16.44
2018-06-13T22:06:18.398Z,16.58
2018-06-13T22:08:46.957Z,16.74
2018-06-13T22:11:16.592Z,16.77
2018-06-13T22:13:45.042Z,16.74
2018-06-13T22:16:13.702Z,16.60
2018-06-13T22:18:42.939Z,16.51
2018-06-13T22:21:11.815Z,16.52
2018-06-13T22:23:40.833Z,16.48
2018-06-13T22:26:10.194Z,16.54
2018-06-13T22:28:38.722Z,16.19
2018-06-13T22:31:08.113Z,16.43
2018-06-13T22:33:37.038Z,16.49
2018-06-13T22:36:05.983Z,16.53
2018-06-13T22:38:34.430Z,16.47
2018-06-13T22:41:03.058Z,16.42
2018-06-13T22:43:31.516Z,16.46
2018-06-13T22:46:00.036Z,16.59
2018-06-13T22:48:28.994Z,16.58
2018-06-13T22:50:57.612Z,16.31
2018-06-13T22:53:26.182Z,16.40
2018-06-13T22:55:55.247Z,16.52
2018-06-13T22:58:23.791Z,16.58
2018-06-13T23:01:01.855Z,16.41
2018-06-13T23:03:31.163Z,16.51
2018-06-13T23:06:07.589Z,16.45
2018-06-13T23:08:37.493Z,16.58
2018-06-13T23:11:06.691Z,16.55
2018-06-13T23:13:35.656Z,16.54
2018-06-13T23:16:04.239Z,16.48
2018-06-13T23:18:32.990Z,16.37
2018-06-13T23:21:01.599Z,16.26
2018-06-13T23:23:30.244Z,16.40
2018-06-13T23:25:58.878Z,16.35
2018-06-13T23:28:27.412Z,16.35
2018-06-13T23:30:56.328Z,16.48
2018-06-13T23:33:24.890Z,16.53
2018-06-13T23:35:54.206Z,16.57
2018-06-13T23:38:22.808Z,16.57
2018-06-13T23:40:51.357Z,16.56
2018-06-13T23:43:20.427Z,16.57
2018-06-13T23:45:49.300Z,16.62
2018-06-13T23:48:18.097Z,16.58
2018-06-13T23:50:47.019Z,16.39
2018-06-13T23:53:15.836Z,16.52
2018-06-13T23:55:44.370Z,16.56
2018-06-13T23:58:13.226Z,16.57
